sensor_id;sensor_type;location;lat;lon;timestamp;P1;durP1;ratioP1;P2;durP2;ratioP2
45007;SDS011;30743;52.008;5.644;2023-04-21T00:00:53;16.58;;;12.30;;
45007;SDS011;30743;52.008;5.644;2023-04-21T00:03:20;16.88;;;12.23;;
45007;SDS011;30743;52.008;5.644;2023-04-21T00:05:47;17.90;;;11.88;;
45007;SDS011;30743;52.008;5.644;2023-04-21T00:08:16;14.15;;;10.23;;
45007;SDS011;30743;52.008;5.644;2023-04-21T00:10:42;15.82;;;10.70;;
45007;SDS011;30743;52.008;5.644;2023-04-21T00:13:08;16.17;;;10.00;;
45007;SDS011;30743;52.008;5.644;2023-04-21T00:15:34;16.10;;;11.07;;
45007;SDS011;30743;52.008;5.644;2023-04-21T00:18:00;17.25;;;10.88;;
45007;SDS011;30743;52.008;5.644;2023-04-21T00:20:25;16.90;;;11.32;;
45007;SDS011;30743;52.008;5.644;2023-04-21T00:22:57;14.52;;;10.50;;
45007;SDS011;30743;52.008;5.644;2023-04-21T00:25:23;16.40;;;10.40;;
45007;SDS011;30743;52.008;5.644;2023-04-21T00:27:49;18.17;;;11.50;;
45007;SDS011;30743;52.008;5.644;2023-04-21T00:30:15;17.88;;;12.15;;
45007;SDS011;30743;52.008;5.644;2023-04-21T00:32:41;17.85;;;11.73;;
45007;SDS011;30743;52.008;5.644;2023-04-21T00:35:07;19.45;;;11.90;;
45007;SDS011;30743;52.008;5.644;2023-04-21T00:37:33;19.30;;;11.95;;
45007;SDS011;30743;52.008;5.644;2023-04-21T00:39:58;18.15;;;12.30;;
45007;SDS011;30743;52.008;5.644;2023-04-21T00:42:24;17.70;;;11.52;;
45007;SDS011;30743;52.008;5.644;2023-04-21T00:44:50;20.35;;;13.35;;
45007;SDS011;30743;52.008;5.644;2023-04-21T00:47:16;18.38;;;12.70;;
45007;SDS011;30743;52.008;5.644;2023-04-21T00:49:42;22.45;;;15.10;;
45007;SDS011;30743;52.008;5.644;2023-04-21T00:52:09;22.67;;;15.43;;
45007;SDS011;30743;52.008;5.644;2023-04-21T00:54:35;19.83;;;13.52;;
45007;SDS011;30743;52.008;5.644;2023-04-21T00:57:01;21.83;;;14.50;;
45007;SDS011;30743;52.008;5.644;2023-04-21T00:59:27;19.70;;;13.70;;
45007;SDS011;30743;52.008;5.644;2023-04-21T01:01:53;22.45;;;14.40;;
45007;SDS011;30743;52.008;5.644;2023-04-21T01:04:19;21.13;;;14.48;;
45007;SDS011;30743;52.008;5.644;2023-04-21T01:06:45;24.15;;;13.85;;
45007;SDS011;30743;52.008;5.644;2023-04-21T01:09:10;23.50;;;13.73;;
45007;SDS011;30743;52.008;5.644;2023-04-21T01:11:36;21.38;;;13.82;;
45007;SDS011;30743;52.008;5.644;2023-04-21T01:14:02;19.75;;;13.63;;
45007;SDS011;30743;52.008;5.644;2023-04-21T01:16:29;19.63;;;13.75;;
45007;SDS011;30743;52.008;5.644;2023-04-21T01:18:56;21.17;;;14.18;;
45007;SDS011;30743;52.008;5.644;2023-04-21T01:21:23;21.70;;;14.02;;
45007;SDS011;30743;52.008;5.644;2023-04-21T01:23:48;23.00;;;14.50;;
45007;SDS011;30743;52.008;5.644;2023-04-21T01:26:20;25.00;;;15.30;;
45007;SDS011;30743;52.008;5.644;2023-04-21T01:28:46;24.70;;;15.02;;
45007;SDS011;30743;52.008;5.644;2023-04-21T01:31:13;21.02;;;15.50;;
45007;SDS011;30743;52.008;5.644;2023-04-21T01:33:40;22.63;;;15.40;;
45007;SDS011;30743;52.008;5.644;2023-04-21T01:36:06;24.30;;;15.10;;
45007;SDS011;30743;52.008;5.644;2023-04-21T01:38:32;21.55;;;14.82;;
45007;SDS011;30743;52.008;5.644;2023-04-21T01:40:58;19.70;;;14.18;;
45007;SDS011;30743;52.008;5.644;2023-04-21T01:43:23;21.23;;;14.15;;
45007;SDS011;30743;52.008;5.644;2023-04-21T01:45:49;22.20;;;14.70;;
45007;SDS011;30743;52.008;5.644;2023-04-21T01:48:15;21.67;;;14.73;;
45007;SDS011;30743;52.008;5.644;2023-04-21T01:50:41;21.35;;;14.00;;
45007;SDS011;30743;52.008;5.644;2023-04-21T01:53:06;19.08;;;14.27;;
45007;SDS011;30743;52.008;5.644;2023-04-21T01:55:32;21.23;;;14.32;;
45007;SDS011;30743;52.008;5.644;2023-04-21T01:57:57;19.85;;;13.65;;
45007;SDS011;30743;52.008;5.644;2023-04-21T02:00:23;21.65;;;13.98;;
45007;SDS011;30743;52.008;5.644;2023-04-21T02:02:49;20.83;;;13.82;;
45007;SDS011;30743;52.008;5.644;2023-04-21T02:05:15;21.63;;;13.73;;
45007;SDS011;30743;52.008;5.644;2023-04-21T02:07:41;18.90;;;13.63;;
45007;SDS011;30743;52.008;5.644;2023-04-21T02:10:06;18.05;;;12.38;;
45007;SDS011;30743;52.008;5.644;2023-04-21T02:12:32;17.63;;;12.13;;
45007;SDS011;30743;52.008;5.644;2023-04-21T02:14:57;18.40;;;13.30;;
45007;SDS011;30743;52.008;5.644;2023-04-21T02:17:23;18.40;;;12.75;;
45007;SDS011;30743;52.008;5.644;2023-04-21T02:19:49;19.75;;;13.43;;
45007;SDS011;30743;52.008;5.644;2023-04-21T02:22:14;20.38;;;13.85;;
45007;SDS011;30743;52.008;5.644;2023-04-21T02:24:40;20.13;;;13.73;;
45007;SDS011;30743;52.008;5.644;2023-04-21T02:27:05;20.15;;;14.43;;
45007;SDS011;30743;52.008;5.644;2023-04-21T02:29:31;20.13;;;13.82;;
45007;SDS011;30743;52.008;5.644;2023-04-21T02:31:56;23.05;;;14.85;;
45007;SDS011;30743;52.008;5.644;2023-04-21T02:34:22;19.27;;;14.23;;
45007;SDS011;30743;52.008;5.644;2023-04-21T02:36:48;23.13;;;15.20;;
45007;SDS011;30743;52.008;5.644;2023-04-21T02:39:13;19.55;;;13.73;;
45007;SDS011;30743;52.008;5.644;2023-04-21T02:41:39;20.98;;;14.07;;
45007;SDS011;30743;52.008;5.644;2023-04-21T02:44:04;20.88;;;14.15;;
45007;SDS011;30743;52.008;5.644;2023-04-21T02:46:30;21.95;;;14.05;;
45007;SDS011;30743;52.008;5.644;2023-04-21T02:48:56;19.90;;;14.48;;
45007;SDS011;30743;52.008;5.644;2023-04-21T02:51:21;20.35;;;14.25;;
45007;SDS011;30743;52.008;5.644;2023-04-21T02:53:47;23.95;;;15.30;;
45007;SDS011;30743;52.008;5.644;2023-04-21T02:56:12;21.42;;;15.23;;
45007;SDS011;30743;52.008;5.644;2023-04-21T02:58:38;21.48;;;14.13;;
45007;SDS011;30743;52.008;5.644;2023-04-21T03:01:04;19.02;;;13.25;;
45007;SDS011;30743;52.008;5.644;2023-04-21T03:03:30;18.85;;;12.82;;
45007;SDS011;30743;52.008;5.644;2023-04-21T03:06:00;19.63;;;13.68;;
45007;SDS011;30743;52.008;5.644;2023-04-21T03:08:27;20.13;;;13.88;;
45007;SDS011;30743;52.008;5.644;2023-04-21T03:10:52;17.55;;;12.93;;
45007;SDS011;30743;52.008;5.644;2023-04-21T03:13:18;18.00;;;13.43;;
45007;SDS011;30743;52.008;5.644;2023-04-21T03:15:44;20.60;;;14.77;;
45007;SDS011;30743;52.008;5.644;2023-04-21T03:18:10;18.85;;;13.73;;
45007;SDS011;30743;52.008;5.644;2023-04-21T03:20:35;19.35;;;13.68;;
45007;SDS011;30743;52.008;5.644;2023-04-21T03:23:01;18.60;;;13.48;;
45007;SDS011;30743;52.008;5.644;2023-04-21T03:25:26;18.77;;;13.48;;
45007;SDS011;30743;52.008;5.644;2023-04-21T03:27:53;18.23;;;13.60;;
45007;SDS011;30743;52.008;5.644;2023-04-21T03:30:18;19.25;;;13.70;;
45007;SDS011;30743;52.008;5.644;2023-04-21T03:32:44;19.38;;;13.55;;
45007;SDS011;30743;52.008;5.644;2023-04-21T03:35:10;19.52;;;13.75;;
45007;SDS011;30743;52.008;5.644;2023-04-21T03:37:36;19.35;;;14.45;;
45007;SDS011;30743;52.008;5.644;2023-04-21T03:40:02;21.15;;;15.18;;
45007;SDS011;30743;52.008;5.644;2023-04-21T03:42:30;20.90;;;14.05;;
45007;SDS011;30743;52.008;5.644;2023-04-21T03:44:55;19.75;;;15.23;;
45007;SDS011;30743;52.008;5.644;2023-04-21T03:47:25;20.40;;;14.85;;
45007;SDS011;30743;52.008;5.644;2023-04-21T03:49:50;22.88;;;15.85;;
45007;SDS011;30743;52.008;5.644;2023-04-21T03:52:16;22.83;;;15.27;;
45007;SDS011;30743;52.008;5.644;2023-04-21T03:54:41;21.42;;;16.00;;
45007;SDS011;30743;52.008;5.644;2023-04-21T03:57:07;20.65;;;14.95;;
45007;SDS011;30743;52.008;5.644;2023-04-21T03:59:32;20.98;;;14.88;;
45007;SDS011;30743;52.008;5.644;2023-04-21T04:01:58;22.05;;;14.95;;
45007;SDS011;30743;52.008;5.644;2023-04-21T04:04:23;20.77;;;15.40;;
45007;SDS011;30743;52.008;5.644;2023-04-21T04:06:49;20.02;;;14.57;;
45007;SDS011;30743;52.008;5.644;2023-04-21T04:09:14;20.17;;;14.77;;
45007;SDS011;30743;52.008;5.644;2023-04-21T04:11:40;22.90;;;16.10;;
45007;SDS011;30743;52.008;5.644;2023-04-21T04:14:05;21.85;;;16.10;;
45007;SDS011;30743;52.008;5.644;2023-04-21T04:16:32;23.02;;;16.77;;
45007;SDS011;30743;52.008;5.644;2023-04-21T04:19:01;26.08;;;16.92;;
45007;SDS011;30743;52.008;5.644;2023-04-21T04:21:27;24.23;;;16.55;;
45007;SDS011;30743;52.008;5.644;2023-04-21T04:23:53;24.75;;;17.67;;
45007;SDS011;30743;52.008;5.644;2023-04-21T04:26:19;25.30;;;17.27;;
45007;SDS011;30743;52.008;5.644;2023-04-21T04:28:46;26.27;;;17.77;;
45007;SDS011;30743;52.008;5.644;2023-04-21T04:31:12;28.48;;;18.67;;
45007;SDS011;30743;52.008;5.644;2023-04-21T04:33:42;28.85;;;18.85;;
45007;SDS011;30743;52.008;5.644;2023-04-21T04:36:08;28.90;;;18.63;;
45007;SDS011;30743;52.008;5.644;2023-04-21T04:38:35;27.08;;;19.67;;
45007;SDS011;30743;52.008;5.644;2023-04-21T04:41:01;27.50;;;18.90;;
45007;SDS011;30743;52.008;5.644;2023-04-21T04:43:27;27.60;;;18.98;;
45007;SDS011;30743;52.008;5.644;2023-04-21T04:45:53;29.08;;;19.50;;
45007;SDS011;30743;52.008;5.644;2023-04-21T04:48:19;28.73;;;19.75;;
45007;SDS011;30743;52.008;5.644;2023-04-21T04:50:44;26.42;;;19.20;;
45007;SDS011;30743;52.008;5.644;2023-04-21T04:53:10;27.23;;;18.90;;
45007;SDS011;30743;52.008;5.644;2023-04-21T04:55:35;27.83;;;19.42;;
45007;SDS011;30743;52.008;5.644;2023-04-21T04:58:02;27.25;;;18.83;;
45007;SDS011;30743;52.008;5.644;2023-04-21T05:00:27;27.77;;;19.13;;
45007;SDS011;30743;52.008;5.644;2023-04-21T05:02:53;28.23;;;18.83;;
45007;SDS011;30743;52.008;5.644;2023-04-21T05:05:19;28.25;;;19.45;;
45007;SDS011;30743;52.008;5.644;2023-04-21T05:07:45;28.75;;;20.63;;
45007;SDS011;30743;52.008;5.644;2023-04-21T05:10:12;29.40;;;21.00;;
45007;SDS011;30743;52.008;5.644;2023-04-21T05:12:37;28.48;;;20.02;;
45007;SDS011;30743;52.008;5.644;2023-04-21T05:15:03;31.45;;;20.75;;
45007;SDS011;30743;52.008;5.644;2023-04-21T05:17:31;26.70;;;19.90;;
45007;SDS011;30743;52.008;5.644;2023-04-21T05:19:57;30.70;;;21.08;;
45007;SDS011;30743;52.008;5.644;2023-04-21T05:22:23;30.38;;;20.65;;
45007;SDS011;30743;52.008;5.644;2023-04-21T05:24:50;35.13;;;22.17;;
45007;SDS011;30743;52.008;5.644;2023-04-21T05:27:16;27.83;;;19.85;;
45007;SDS011;30743;52.008;5.644;2023-04-21T05:29:41;27.98;;;20.48;;
45007;SDS011;30743;52.008;5.644;2023-04-21T05:32:07;28.17;;;20.73;;
45007;SDS011;30743;52.008;5.644;2023-04-21T05:34:33;27.27;;;20.13;;
45007;SDS011;30743;52.008;5.644;2023-04-21T05:36:58;28.27;;;20.55;;
45007;SDS011;30743;52.008;5.644;2023-04-21T05:39:25;30.02;;;21.25;;
45007;SDS011;30743;52.008;5.644;2023-04-21T05:41:51;29.38;;;20.98;;
45007;SDS011;30743;52.008;5.644;2023-04-21T05:44:17;26.33;;;19.33;;
45007;SDS011;30743;52.008;5.644;2023-04-21T05:46:42;27.98;;;20.60;;
45007;SDS011;30743;52.008;5.644;2023-04-21T05:49:08;29.80;;;20.73;;
45007;SDS011;30743;52.008;5.644;2023-04-21T05:51:33;29.08;;;19.83;;
45007;SDS011;30743;52.008;5.644;2023-04-21T05:53:59;27.65;;;20.58;;
45007;SDS011;30743;52.008;5.644;2023-04-21T05:56:25;27.80;;;19.98;;
45007;SDS011;30743;52.008;5.644;2023-04-21T05:58:50;28.05;;;20.25;;
45007;SDS011;30743;52.008;5.644;2023-04-21T06:01:16;29.23;;;21.00;;
45007;SDS011;30743;52.008;5.644;2023-04-21T06:03:41;26.17;;;19.50;;
45007;SDS011;30743;52.008;5.644;2023-04-21T06:06:07;26.48;;;19.35;;
45007;SDS011;30743;52.008;5.644;2023-04-21T06:08:34;26.35;;;19.40;;
45007;SDS011;30743;52.008;5.644;2023-04-21T06:10:59;22.73;;;18.23;;
45007;SDS011;30743;52.008;5.644;2023-04-21T06:13:25;28.10;;;19.25;;
45007;SDS011;30743;52.008;5.644;2023-04-21T06:15:51;24.88;;;19.00;;
45007;SDS011;30743;52.008;5.644;2023-04-21T06:18:17;22.58;;;17.75;;
45007;SDS011;30743;52.008;5.644;2023-04-21T06:20:48;28.73;;;18.85;;
45007;SDS011;30743;52.008;5.644;2023-04-21T06:23:15;24.50;;;17.92;;
45007;SDS011;30743;52.008;5.644;2023-04-21T06:25:41;22.65;;;17.60;;
45007;SDS011;30743;52.008;5.644;2023-04-21T06:28:06;22.83;;;18.38;;
45007;SDS011;30743;52.008;5.644;2023-04-21T06:30:32;23.23;;;17.77;;
45007;SDS011;30743;52.008;5.644;2023-04-21T06:32:57;22.70;;;18.02;;
45007;SDS011;30743;52.008;5.644;2023-04-21T06:35:23;22.40;;;17.02;;
45007;SDS011;30743;52.008;5.644;2023-04-21T06:37:48;21.25;;;16.23;;
45007;SDS011;30743;52.008;5.644;2023-04-21T06:40:14;22.70;;;17.25;;
45007;SDS011;30743;52.008;5.644;2023-04-21T06:42:40;22.17;;;17.58;;
45007;SDS011;30743;52.008;5.644;2023-04-21T06:45:06;20.20;;;16.23;;
45007;SDS011;30743;52.008;5.644;2023-04-21T06:47:32;21.05;;;15.93;;
45007;SDS011;30743;52.008;5.644;2023-04-21T06:49:57;20.10;;;16.73;;
45007;SDS011;30743;52.008;5.644;2023-04-21T06:52:23;19.50;;;16.25;;
45007;SDS011;30743;52.008;5.644;2023-04-21T06:54:48;19.63;;;15.77;;
45007;SDS011;30743;52.008;5.644;2023-04-21T06:57:14;20.42;;;15.48;;
45007;SDS011;30743;52.008;5.644;2023-04-21T06:59:41;18.33;;;15.38;;
45007;SDS011;30743;52.008;5.644;2023-04-21T07:02:06;17.77;;;14.98;;
45007;SDS011;30743;52.008;5.644;2023-04-21T07:04:32;17.58;;;14.65;;
45007;SDS011;30743;52.008;5.644;2023-04-21T07:06:59;16.70;;;13.85;;
45007;SDS011;30743;52.008;5.644;2023-04-21T07:09:24;17.00;;;14.48;;
45007;SDS011;30743;52.008;5.644;2023-04-21T07:11:52;18.65;;;14.80;;
45007;SDS011;30743;52.008;5.644;2023-04-21T07:14:18;16.73;;;14.23;;
45007;SDS011;30743;52.008;5.644;2023-04-21T07:16:44;18.67;;;14.73;;
45007;SDS011;30743;52.008;5.644;2023-04-21T07:19:09;18.13;;;14.20;;
45007;SDS011;30743;52.008;5.644;2023-04-21T07:21:35;17.35;;;13.45;;
45007;SDS011;30743;52.008;5.644;2023-04-21T07:24:01;16.80;;;14.13;;
45007;SDS011;30743;52.008;5.644;2023-04-21T07:26:27;15.73;;;13.05;;
45007;SDS011;30743;52.008;5.644;2023-04-21T07:28:52;16.95;;;13.25;;
45007;SDS011;30743;52.008;5.644;2023-04-21T07:31:19;15.80;;;13.48;;
45007;SDS011;30743;52.008;5.644;2023-04-21T07:33:45;16.00;;;13.30;;
45007;SDS011;30743;52.008;5.644;2023-04-21T07:36:10;15.43;;;12.68;;
45007;SDS011;30743;52.008;5.644;2023-04-21T07:38:36;15.55;;;12.30;;
45007;SDS011;30743;52.008;5.644;2023-04-21T07:41:02;16.73;;;12.77;;
45007;SDS011;30743;52.008;5.644;2023-04-21T07:43:29;17.08;;;12.73;;
45007;SDS011;30743;52.008;5.644;2023-04-21T07:45:55;15.35;;;12.43;;
45007;SDS011;30743;52.008;5.644;2023-04-21T07:48:21;18.45;;;13.27;;
45007;SDS011;30743;52.008;5.644;2023-04-21T07:50:47;15.60;;;12.55;;
45007;SDS011;30743;52.008;5.644;2023-04-21T07:53:14;15.35;;;12.73;;
45007;SDS011;30743;52.008;5.644;2023-04-21T07:55:40;14.60;;;13.02;;
45007;SDS011;30743;52.008;5.644;2023-04-21T07:58:05;16.60;;;13.30;;
45007;SDS011;30743;52.008;5.644;2023-04-21T08:00:31;16.63;;;13.52;;
45007;SDS011;30743;52.008;5.644;2023-04-21T08:02:57;15.48;;;13.45;;
45007;SDS011;30743;52.008;5.644;2023-04-21T08:05:23;15.30;;;12.82;;
45007;SDS011;30743;52.008;5.644;2023-04-21T08:07:48;15.70;;;12.85;;
45007;SDS011;30743;52.008;5.644;2023-04-21T08:10:14;16.58;;;13.23;;
45007;SDS011;30743;52.008;5.644;2023-04-21T08:12:41;16.15;;;13.32;;
45007;SDS011;30743;52.008;5.644;2023-04-21T08:15:06;16.65;;;13.27;;
45007;SDS011;30743;52.008;5.644;2023-04-21T08:17:32;16.15;;;13.48;;
45007;SDS011;30743;52.008;5.644;2023-04-21T08:19:58;18.77;;;12.95;;
45007;SDS011;30743;52.008;5.644;2023-04-21T08:22:24;15.23;;;12.88;;
45007;SDS011;30743;52.008;5.644;2023-04-21T08:24:49;18.88;;;13.43;;
45007;SDS011;30743;52.008;5.644;2023-04-21T08:27:15;17.13;;;13.25;;
45007;SDS011;30743;52.008;5.644;2023-04-21T08:29:41;15.90;;;13.25;;
45007;SDS011;30743;52.008;5.644;2023-04-21T08:32:06;15.60;;;13.48;;
45007;SDS011;30743;52.008;5.644;2023-04-21T08:34:32;17.05;;;13.77;;
45007;SDS011;30743;52.008;5.644;2023-04-21T08:36:58;15.98;;;12.88;;
45007;SDS011;30743;52.008;5.644;2023-04-21T08:39:23;15.55;;;12.73;;
45007;SDS011;30743;52.008;5.644;2023-04-21T08:41:49;15.15;;;13.00;;
45007;SDS011;30743;52.008;5.644;2023-04-21T08:44:15;17.08;;;12.00;;
45007;SDS011;30743;52.008;5.644;2023-04-21T08:46:43;16.90;;;12.80;;
45007;SDS011;30743;52.008;5.644;2023-04-21T08:49:09;17.25;;;13.55;;
45007;SDS011;30743;52.008;5.644;2023-04-21T08:51:36;18.55;;;14.05;;
45007;SDS011;30743;52.008;5.644;2023-04-21T08:54:02;17.17;;;14.38;;
45007;SDS011;30743;52.008;5.644;2023-04-21T08:56:28;16.35;;;13.93;;
45007;SDS011;30743;52.008;5.644;2023-04-21T08:58:53;16.85;;;13.15;;
45007;SDS011;30743;52.008;5.644;2023-04-21T09:01:19;14.52;;;12.60;;
45007;SDS011;30743;52.008;5.644;2023-04-21T09:03:44;14.38;;;12.00;;
45007;SDS011;30743;52.008;5.644;2023-04-21T09:06:10;15.43;;;12.43;;
45007;SDS011;30743;52.008;5.644;2023-04-21T09:08:37;15.00;;;12.85;;
45007;SDS011;30743;52.008;5.644;2023-04-21T09:11:06;13.82;;;12.13;;
45007;SDS011;30743;52.008;5.644;2023-04-21T09:13:32;15.55;;;13.20;;
45007;SDS011;30743;52.008;5.644;2023-04-21T09:15:59;16.20;;;13.05;;
45007;SDS011;30743;52.008;5.644;2023-04-21T09:18:27;13.43;;;12.02;;
45007;SDS011;30743;52.008;5.644;2023-04-21T09:23:41;14.77;;;11.60;;
45007;SDS011;30743;52.008;5.644;2023-04-21T09:28:41;13.80;;;12.35;;
45007;SDS011;30743;52.008;5.644;2023-04-21T09:36:19;14.18;;;11.10;;
45007;SDS011;30743;52.008;5.644;2023-04-21T09:38:58;13.90;;;11.90;;
45007;SDS011;30743;52.008;5.644;2023-04-21T09:41:25;15.25;;;11.57;;
45007;SDS011;30743;52.008;5.644;2023-04-21T09:43:51;14.07;;;11.23;;
45007;SDS011;30743;52.008;5.644;2023-04-21T09:46:17;14.00;;;11.38;;
45007;SDS011;30743;52.008;5.644;2023-04-21T09:48:44;13.55;;;11.13;;
45007;SDS011;30743;52.008;5.644;2023-04-21T09:51:10;14.63;;;11.55;;
45007;SDS011;30743;52.008;5.644;2023-04-21T09:53:38;13.90;;;11.25;;
45007;SDS011;30743;52.008;5.644;2023-04-21T09:56:05;12.50;;;10.82;;
45007;SDS011;30743;52.008;5.644;2023-04-21T09:58:36;12.80;;;11.40;;
45007;SDS011;30743;52.008;5.644;2023-04-21T10:01:10;13.80;;;11.40;;
45007;SDS011;30743;52.008;5.644;2023-04-21T10:03:37;13.68;;;12.07;;
45007;SDS011;30743;52.008;5.644;2023-04-21T10:06:04;14.50;;;12.27;;
45007;SDS011;30743;52.008;5.644;2023-04-21T10:08:30;13.07;;;11.65;;
45007;SDS011;30743;52.008;5.644;2023-04-21T10:10:57;13.77;;;12.30;;
45007;SDS011;30743;52.008;5.644;2023-04-21T10:13:23;14.48;;;12.27;;
45007;SDS011;30743;52.008;5.644;2023-04-21T10:15:49;14.30;;;12.18;;
45007;SDS011;30743;52.008;5.644;2023-04-21T10:18:37;14.55;;;12.10;;
45007;SDS011;30743;52.008;5.644;2023-04-21T10:21:08;12.98;;;11.35;;
45007;SDS011;30743;52.008;5.644;2023-04-21T10:26:11;14.18;;;11.30;;
45007;SDS011;30743;52.008;5.644;2023-04-21T10:36:49;15.48;;;11.65;;
45007;SDS011;30743;52.008;5.644;2023-04-21T10:39:27;14.10;;;12.60;;
45007;SDS011;30743;52.008;5.644;2023-04-21T10:41:55;14.07;;;11.95;;
45007;SDS011;30743;52.008;5.644;2023-04-21T10:44:22;14.10;;;12.05;;
45007;SDS011;30743;52.008;5.644;2023-04-21T10:46:52;14.13;;;12.60;;
45007;SDS011;30743;52.008;5.644;2023-04-21T10:54:23;15.63;;;12.10;;
45007;SDS011;30743;52.008;5.644;2023-04-21T10:56:52;14.80;;;11.80;;
45007;SDS011;30743;52.008;5.644;2023-04-21T10:59:19;15.07;;;11.98;;
45007;SDS011;30743;52.008;5.644;2023-04-21T11:01:45;13.23;;;11.52;;
45007;SDS011;30743;52.008;5.644;2023-04-21T11:04:17;12.57;;;11.27;;
45007;SDS011;30743;52.008;5.644;2023-04-21T11:07:06;12.68;;;11.27;;
45007;SDS011;30743;52.008;5.644;2023-04-21T11:12:00;12.30;;;10.85;;
45007;SDS011;30743;52.008;5.644;2023-04-21T11:14:28;13.45;;;10.95;;
45007;SDS011;30743;52.008;5.644;2023-04-21T11:16:54;14.35;;;11.45;;
45007;SDS011;30743;52.008;5.644;2023-04-21T11:19:20;13.00;;;11.50;;
45007;SDS011;30743;52.008;5.644;2023-04-21T11:21:48;11.27;;;10.07;;
45007;SDS011;30743;52.008;5.644;2023-04-21T11:24:14;13.55;;;11.13;;
45007;SDS011;30743;52.008;5.644;2023-04-21T11:26:39;11.80;;;9.73;;
45007;SDS011;30743;52.008;5.644;2023-04-21T11:29:07;12.23;;;10.27;;
45007;SDS011;30743;52.008;5.644;2023-04-21T11:31:34;12.15;;;10.00;;
45007;SDS011;30743;52.008;5.644;2023-04-21T11:34:01;10.40;;;8.73;;
45007;SDS011;30743;52.008;5.644;2023-04-21T11:36:31;12.60;;;9.65;;
45007;SDS011;30743;52.008;5.644;2023-04-21T11:39:07;11.95;;;8.98;;
45007;SDS011;30743;52.008;5.644;2023-04-21T11:41:34;12.13;;;9.50;;
45007;SDS011;30743;52.008;5.644;2023-04-21T11:44:03;12.65;;;9.38;;
45007;SDS011;30743;52.008;5.644;2023-04-21T11:46:28;10.88;;;9.52;;
45007;SDS011;30743;52.008;5.644;2023-04-21T11:49:04;8.32;;;7.45;;
45007;SDS011;30743;52.008;5.644;2023-04-21T11:51:34;9.82;;;8.38;;
45007;SDS011;30743;52.008;5.644;2023-04-21T11:54:00;9.70;;;8.13;;
45007;SDS011;30743;52.008;5.644;2023-04-21T11:56:25;9.93;;;8.35;;
45007;SDS011;30743;52.008;5.644;2023-04-21T11:58:51;9.32;;;8.13;;
45007;SDS011;30743;52.008;5.644;2023-04-21T12:01:17;12.00;;;8.60;;
45007;SDS011;30743;52.008;5.644;2023-04-21T12:03:51;9.85;;;8.38;;
45007;SDS011;30743;52.008;5.644;2023-04-21T12:06:25;9.10;;;8.07;;
45007;SDS011;30743;52.008;5.644;2023-04-21T12:08:55;10.85;;;9.10;;
45007;SDS011;30743;52.008;5.644;2023-04-21T12:11:23;12.10;;;10.27;;
45007;SDS011;30743;52.008;5.644;2023-04-21T12:13:52;12.32;;;10.02;;
45007;SDS011;30743;52.008;5.644;2023-04-21T12:16:17;12.35;;;9.43;;
45007;SDS011;30743;52.008;5.644;2023-04-21T12:18:43;12.70;;;9.82;;
45007;SDS011;30743;52.008;5.644;2023-04-21T12:21:09;11.77;;;10.15;;
45007;SDS011;30743;52.008;5.644;2023-04-21T12:23:39;17.27;;;11.10;;
45007;SDS011;30743;52.008;5.644;2023-04-21T12:26:04;13.90;;;11.50;;
45007;SDS011;30743;52.008;5.644;2023-04-21T12:28:30;13.10;;;10.55;;
45007;SDS011;30743;52.008;5.644;2023-04-21T12:30:55;13.18;;;10.38;;
45007;SDS011;30743;52.008;5.644;2023-04-21T12:33:21;13.02;;;10.98;;
45007;SDS011;30743;52.008;5.644;2023-04-21T12:35:46;15.55;;;11.80;;
45007;SDS011;30743;52.008;5.644;2023-04-21T12:38:12;15.90;;;11.40;;
45007;SDS011;30743;52.008;5.644;2023-04-21T12:40:37;13.05;;;10.32;;
45007;SDS011;30743;52.008;5.644;2023-04-21T12:43:03;14.45;;;11.40;;
45007;SDS011;30743;52.008;5.644;2023-04-21T12:45:28;15.10;;;11.73;;
45007;SDS011;30743;52.008;5.644;2023-04-21T12:47:55;15.18;;;11.48;;
45007;SDS011;30743;52.008;5.644;2023-04-21T12:50:22;13.55;;;11.15;;
45007;SDS011;30743;52.008;5.644;2023-04-21T12:52:47;15.10;;;12.57;;
45007;SDS011;30743;52.008;5.644;2023-04-21T12:55:15;17.02;;;13.18;;
45007;SDS011;30743;52.008;5.644;2023-04-21T12:57:41;13.60;;;12.07;;
45007;SDS011;30743;52.008;5.644;2023-04-21T13:00:07;16.88;;;12.13;;
45007;SDS011;30743;52.008;5.644;2023-04-21T13:02:36;16.13;;;12.30;;
45007;SDS011;30743;52.008;5.644;2023-04-21T13:05:02;13.95;;;11.90;;
45007;SDS011;30743;52.008;5.644;2023-04-21T13:07:32;15.05;;;12.15;;
45007;SDS011;30743;52.008;5.644;2023-04-21T13:09:58;14.57;;;12.80;;
45007;SDS011;30743;52.008;5.644;2023-04-21T13:12:24;14.90;;;12.15;;
45007;SDS011;30743;52.008;5.644;2023-04-21T13:14:49;14.20;;;12.13;;
45007;SDS011;30743;52.008;5.644;2023-04-21T13:17:15;15.65;;;12.48;;
45007;SDS011;30743;52.008;5.644;2023-04-21T13:19:41;15.65;;;11.80;;
45007;SDS011;30743;52.008;5.644;2023-04-21T13:22:06;13.77;;;11.48;;
45007;SDS011;30743;52.008;5.644;2023-04-21T13:24:32;16.33;;;12.05;;
45007;SDS011;30743;52.008;5.644;2023-04-21T13:26:58;13.50;;;11.35;;
45007;SDS011;30743;52.008;5.644;2023-04-21T13:29:25;17.20;;;12.02;;
45007;SDS011;30743;52.008;5.644;2023-04-21T13:31:53;13.60;;;10.77;;
45007;SDS011;30743;52.008;5.644;2023-04-21T13:34:22;13.57;;;11.10;;
45007;SDS011;30743;52.008;5.644;2023-04-21T13:36:47;12.65;;;10.05;;
45007;SDS011;30743;52.008;5.644;2023-04-21T13:39:13;12.57;;;10.43;;
45007;SDS011;30743;52.008;5.644;2023-04-21T13:41:39;12.32;;;9.88;;
45007;SDS011;30743;52.008;5.644;2023-04-21T13:44:05;12.77;;;10.00;;
45007;SDS011;30743;52.008;5.644;2023-04-21T13:46:31;12.55;;;10.35;;
45007;SDS011;30743;52.008;5.644;2023-04-21T13:48:56;12.38;;;9.50;;
45007;SDS011;30743;52.008;5.644;2023-04-21T13:51:23;11.77;;;9.43;;
45007;SDS011;30743;52.008;5.644;2023-04-21T13:53:49;11.82;;;9.43;;
45007;SDS011;30743;52.008;5.644;2023-04-21T13:56:15;13.30;;;9.30;;
45007;SDS011;30743;52.008;5.644;2023-04-21T13:58:41;13.00;;;9.57;;
45007;SDS011;30743;52.008;5.644;2023-04-21T14:01:06;14.30;;;10.10;;
45007;SDS011;30743;52.008;5.644;2023-04-21T14:03:32;10.00;;;8.70;;
45007;SDS011;30743;52.008;5.644;2023-04-21T14:05:58;10.80;;;9.25;;
45007;SDS011;30743;52.008;5.644;2023-04-21T14:08:23;10.90;;;9.35;;
45007;SDS011;30743;52.008;5.644;2023-04-21T14:10:49;9.80;;;8.80;;
45007;SDS011;30743;52.008;5.644;2023-04-21T14:13:15;10.07;;;8.63;;
45007;SDS011;30743;52.008;5.644;2023-04-21T14:15:40;10.70;;;8.85;;
45007;SDS011;30743;52.008;5.644;2023-04-21T14:18:06;12.63;;;9.65;;
45007;SDS011;30743;52.008;5.644;2023-04-21T14:20:32;12.07;;;9.00;;
45007;SDS011;30743;52.008;5.644;2023-04-21T14:22:58;10.85;;;8.70;;
45007;SDS011;30743;52.008;5.644;2023-04-21T14:25:23;10.55;;;9.27;;
45007;SDS011;30743;52.008;5.644;2023-04-21T14:27:49;13.55;;;10.02;;
45007;SDS011;30743;52.008;5.644;2023-04-21T14:30:15;13.98;;;9.77;;
45007;SDS011;30743;52.008;5.644;2023-04-21T14:32:40;12.63;;;10.20;;
45007;SDS011;30743;52.008;5.644;2023-04-21T14:35:09;13.30;;;9.48;;
45007;SDS011;30743;52.008;5.644;2023-04-21T14:37:35;12.50;;;8.95;;
45007;SDS011;30743;52.008;5.644;2023-04-21T14:40:01;13.35;;;9.40;;
45007;SDS011;30743;52.008;5.644;2023-04-21T14:42:27;12.50;;;10.13;;
45007;SDS011;30743;52.008;5.644;2023-04-21T14:44:53;13.63;;;10.65;;
45007;SDS011;30743;52.008;5.644;2023-04-21T14:47:19;12.57;;;9.90;;